createdAt,value
2022-10-18T04:02:07.770Z,15.30
2022-10-18T04:06:10.397Z,17.40
2022-10-18T04:10:12.994Z,13.97
2022-10-18T04:14:15.773Z,12.97
2022-10-18T04:18:19.700Z,13.90
2022-10-18T04:22:22.338Z,9.95
2022-10-18T04:26:25.026Z,11.23
2022-10-18T04:30:27.651Z,10.85
2022-10-18T04:34:31.661Z,8.95
2022-10-18T04:38:34.426Z,11.52
2022-10-18T04:42:37.022Z,11.40
2022-10-18T04:46:39.672Z,15.00
2022-10-18T04:50:43.659Z,11.60
2022-10-18T04:54:50.016Z,10.43
2022-10-18T04:58:52.603Z,12.33
2022-10-18T05:02:57.756Z,12.05
2022-10-18T05:07:02.773Z,10.75
2022-10-18T05:11:05.635Z,14.00
2022-10-18T05:15:08.967Z,13.35
2022-10-18T05:23:15.521Z,9.85
2022-10-18T05:27:18.141Z,8.30
2022-10-18T05:31:21.267Z,14.37
2022-10-18T05:35:23.889Z,10.23
2022-10-18T05:39:27.891Z,8.45
2022-10-18T05:43:30.675Z,7.40
2022-10-18T05:47:33.267Z,10.55
2022-10-18T05:51:35.853Z,8.80
2022-10-18T05:55:39.877Z,9.60
2022-10-18T05:59:42.497Z,9.90
2022-10-18T06:03:48.192Z,8.57
2022-10-18T06:07:50.767Z,10.02
2022-10-18T06:11:55.407Z,15.03
2022-10-18T06:15:58.393Z,7.68
2022-10-18T06:20:00.975Z,12.32
2022-10-18T06:24:03.635Z,16.70
2022-10-18T06:28:10.141Z,16.03
2022-10-18T06:32:15.013Z,13.30
2022-10-18T06:36:19.567Z,11.95
2022-10-18T06:40:22.202Z,13.35
2022-10-18T06:44:26.278Z,13.13
2022-10-18T06:48:28.889Z,13.85
2022-10-18T06:52:31.876Z,11.93
2022-10-18T06:56:35.295Z,15.55
2022-10-18T07:04:43.173Z,11.57
2022-10-18T07:08:46.385Z,9.38
2022-10-18T07:12:59.182Z,10.02
2022-10-18T07:17:11.880Z,9.77
2022-10-18T07:21:16.518Z,11.18
2022-10-18T07:25:19.247Z,9.77
2022-10-18T07:29:21.882Z,15.70
2022-10-18T07:33:25.893Z,8.20
2022-10-18T07:37:30.147Z,6.60
2022-10-18T07:41:33.897Z,8.68
2022-10-18T07:49:41.581Z,5.65
2022-10-18T07:53:44.205Z,10.05
2022-10-18T07:57:46.777Z,6.03
2022-10-18T08:01:49.411Z,7.70
2022-10-18T08:05:54.626Z,5.95
2022-10-18T08:09:57.241Z,7.40
2022-10-18T08:13:59.856Z,9.00
2022-10-18T08:18:02.455Z,10.57
2022-10-18T08:22:06.421Z,9.38
2022-10-18T08:26:11.786Z,6.90
2022-10-18T08:30:14.581Z,7.43
2022-10-18T08:34:19.700Z,8.50
2022-10-18T08:38:24.366Z,7.78
2022-10-18T08:42:41.856Z,7.70
2022-10-18T08:46:47.147Z,6.60
2022-10-18T08:50:51.908Z,7.60
2022-10-18T08:55:02.032Z,6.57
2022-10-18T08:59:05.020Z,8.93
2022-10-18T09:03:30.727Z,6.53
2022-10-18T09:07:51.499Z,5.38
2022-10-18T09:12:09.830Z,5.00
2022-10-18T09:16:17.455Z,4.72
2022-10-18T09:20:24.387Z,5.70
2022-10-18T09:24:31.832Z,5.00
2022-10-18T09:28:46.157Z,5.80
2022-10-18T09:32:57.663Z,7.55
2022-10-18T09:37:00.904Z,5.13
2022-10-18T09:45:27.784Z,4.65
2022-10-18T09:49:33.663Z,4.15
2022-10-18T09:53:44.309Z,8.27
2022-10-18T09:57:51.319Z,5.28
2022-10-18T10:01:55.589Z,4.68
2022-10-18T10:06:17.639Z,4.20
2022-10-18T10:10:22.698Z,5.55
2022-10-18T10:14:27.364Z,7.00
2022-10-18T10:18:34.296Z,5.75
2022-10-18T10:22:39.391Z,7.25
2022-10-18T10:26:42.105Z,5.90
2022-10-18T10:30:44.805Z,6.78
2022-10-18T10:34:50.892Z,6.15
2022-10-18T10:39:05.386Z,5.47
2022-10-18T10:43:36.386Z,5.95
2022-10-18T10:47:41.136Z,4.97
2022-10-18T10:56:01.381Z,7.05
2022-10-18T11:00:05.343Z,5.28
2022-10-18T11:04:27.637Z,5.57
2022-10-18T11:08:36.774Z,5.93
2022-10-18T11:12:42.565Z,5.53
2022-10-18T11:16:55.429Z,6.22
2022-10-18T11:21:07.764Z,6.18
2022-10-18T11:25:15.590Z,4.72
2022-10-18T11:29:33.355Z,5.30
2022-10-18T11:34:08.112Z,5.82
2022-10-18T11:38:22.382Z,5.55
2022-10-18T11:42:39.064Z,4.88
2022-10-18T11:46:55.594Z,6.22
2022-10-18T11:51:05.926Z,6.43
2022-10-18T11:55:37.283Z,5.93
2022-10-18T11:59:53.247Z,6.55
2022-10-18T12:04:03.678Z,6.53
2022-10-18T12:08:11.402Z,6.47
2022-10-18T12:12:18.970Z,5.50
2022-10-18T12:16:39.242Z,4.95
2022-10-18T12:20:50.261Z,5.30
2022-10-18T12:24:53.162Z,6.65
2022-10-18T12:29:02.951Z,7.53
2022-10-18T12:33:27.180Z,7.68
2022-10-18T12:37:58.666Z,6.22
2022-10-18T12:42:01.432Z,9.73
2022-10-18T12:46:12.184Z,8.10
2022-10-18T12:50:30.455Z,6.75
2022-10-18T12:54:35.449Z,9.90
2022-10-18T12:58:38.051Z,8.05
2022-10-18T13:02:40.670Z,5.95
2022-10-18T13:07:21.157Z,12.05
2022-10-18T13:11:44.582Z,7.88
2022-10-18T13:15:54.766Z,5.88
2022-10-18T13:20:25.689Z,9.90
2022-10-18T13:24:36.763Z,7.13
2022-10-18T13:28:47.040Z,7.53
2022-10-18T13:32:57.618Z,7.75
2022-10-18T13:37:02.251Z,8.43
2022-10-18T13:41:09.035Z,8.50
2022-10-18T13:45:55.508Z,8.18
2022-10-18T13:50:09.995Z,7.53
2022-10-18T13:54:28.743Z,8.70
2022-10-18T13:58:53.814Z,6.05
2022-10-18T14:08:05.674Z,8.30
2022-10-18T14:16:30.829Z,8.40
2022-10-18T14:20:49.399Z,9.93
2022-10-18T14:24:59.995Z,7.95
2022-10-18T14:29:05.865Z,8.48
2022-10-18T14:33:26.453Z,10.93
2022-10-18T14:37:34.358Z,11.93
2022-10-18T14:41:38.600Z,9.35
2022-10-18T14:45:42.467Z,11.85
2022-10-18T14:49:47.855Z,11.25
2022-10-18T14:53:51.648Z,9.93
2022-10-18T14:57:54.437Z,11.73
2022-10-18T15:02:00.851Z,11.13
2022-10-18T15:06:08.415Z,10.20
2022-10-18T15:10:17.396Z,13.10
2022-10-18T15:14:21.382Z,13.60
2022-10-18T15:18:26.046Z,12.18
2022-10-18T15:22:32.674Z,11.48
2022-10-18T15:26:35.733Z,13.45
2022-10-18T15:30:42.855Z,19.40
2022-10-18T15:34:45.931Z,11.35
2022-10-18T15:38:50.203Z,13.82
2022-10-18T15:42:54.900Z,12.23
2022-10-18T15:47:20.133Z,13.90
2022-10-18T15:51:48.827Z,10.60
2022-10-18T15:55:55.454Z,12.43
2022-10-18T16:00:01.884Z,11.68
2022-10-18T16:04:19.491Z,11.18
2022-10-18T16:08:24.431Z,13.43
2022-10-18T16:12:28.359Z,14.52
2022-10-18T16:16:31.107Z,10.82
2022-10-18T16:20:33.712Z,14.88
2022-10-18T16:24:36.282Z,11.93
2022-10-18T16:28:40.845Z,12.65
2022-10-18T16:32:43.451Z,14.65
2022-10-18T16:36:46.169Z,16.73
2022-10-18T16:40:48.770Z,22.33
2022-10-18T16:44:54.873Z,13.18
2022-10-18T16:48:58.173Z,14.90
2022-10-18T16:57:03.213Z,12.30
2022-10-18T17:01:08.987Z,14.40
2022-10-18T17:05:11.839Z,11.88
2022-10-18T17:09:16.018Z,12.07
2022-10-18T17:13:18.634Z,13.77
2022-10-18T17:17:22.591Z,12.30
2022-10-18T17:21:26.329Z,16.58
2022-10-18T17:29:36.477Z,18.77
2022-10-18T17:33:40.399Z,16.33
2022-10-18T17:37:45.411Z,15.55
2022-10-18T17:41:48.764Z,12.73
2022-10-18T17:45:55.491Z,19.23
2022-10-18T17:49:59.955Z,17.80
2022-10-18T17:54:03.148Z,13.57
2022-10-18T17:58:07.086Z,15.00
2022-10-18T18:02:11.655Z,18.83
2022-10-18T18:06:18.178Z,18.63
2022-10-18T18:10:20.976Z,20.48
2022-10-18T18:14:23.779Z,15.68
2022-10-18T18:18:26.378Z,15.13
2022-10-18T18:22:30.607Z,17.67
2022-10-18T18:26:34.559Z,20.40
2022-10-18T18:30:40.735Z,25.15
2022-10-18T18:34:43.387Z,17.10
2022-10-18T18:38:47.548Z,21.33
2022-10-18T18:43:07.164Z,17.50
2022-10-18T18:47:13.461Z,14.20
2022-10-18T18:51:18.348Z,15.43
2022-10-18T18:55:22.417Z,15.00
2022-10-18T18:59:26.204Z,16.60
2022-10-18T19:03:28.811Z,14.63
2022-10-18T19:07:32.379Z,19.23
2022-10-18T19:15:42.260Z,17.60
2022-10-18T19:19:45.517Z,15.27
2022-10-18T19:23:48.223Z,12.80
2022-10-18T19:27:52.343Z,15.97
2022-10-18T19:31:57.334Z,11.27
2022-10-18T19:35:59.932Z,13.68
2022-10-18T19:40:02.850Z,10.13
2022-10-18T19:44:07.566Z,10.95
2022-10-18T19:48:12.427Z,8.82
2022-10-18T19:52:16.181Z,11.82
2022-10-18T19:56:20.893Z,14.57
2022-10-18T20:00:24.830Z,14.45
2022-10-18T20:04:27.447Z,13.95
2022-10-18T20:08:32.940Z,12.07
2022-10-18T20:12:36.445Z,14.00
2022-10-18T20:16:40.388Z,14.35
2022-10-18T20:20:47.236Z,12.73
2022-10-18T20:24:50.855Z,18.65
2022-10-18T20:28:57.523Z,16.53
2022-10-18T20:33:01.634Z,15.05
2022-10-18T20:37:04.240Z,16.58
2022-10-18T20:41:08.343Z,10.73
2022-10-18T20:45:12.361Z,12.15
2022-10-18T20:49:17.409Z,12.68
2022-10-18T20:53:20.266Z,13.85
2022-10-18T20:57:22.862Z,10.82
